Station Historical Data
Daily Summary for December 6, 2017 Units:  Metric    English   Both
Next Day »
Daily Weekly Monthly Yearly Custom
  High: Low: Average:
Temperature: 13 °C 3.7 °C 8.3 °C
Dew Point: 4.6 °C -6.4 °C -2.1 °C
Humidity: 73% 29% 50%
Wind Speed: 22.5km/h 0km/h 1.9km/h
Wind Gust: 45.1km/h - -
Wind- - ESE
Pressure: 1030 hPa 1026 hPa -
Precipitation: 0 mm    
Historical Graphs
 
 
Tabular Data for December 6, 2017
Time Temperature Dew Point Pressure Wind Wind Speed Wind Gust Humidity Rainfall Rate (Hourly) solar Conditions
00:04 4.7 °C -0.1 °C 1026.3 hPa Calm     71% 0 mm 0.00 W/m2
00:09 4.7 °C 0.2 °C 1026.3 hPa Calm     73% 0 mm 0.00 W/m2
00:14 4.6 °C -0.2 °C 1026.3 hPa Calm     71% 0 mm 0.00 W/m2
00:15 4.7 °C -0.1 °C 1026.3 hPa Calm     71% 0 mm 0.00 W/m2
00:20 4.6 °C -0.2 °C 1026 hPa Calm     71% 0 mm 0.00 W/m2
00:25 4.6 °C -0.4 °C 1026 hPa Calm     70% 0 mm 0.00 W/m2
00:30 4.5 °C -0.3 °C 1026 hPa Calm     71% 0 mm 0.00 W/m2
00:35 4.5 °C 0.1 °C 1026 hPa Calm     73% 0 mm 0.00 W/m2
00:40 4.5 °C -0.3 °C 1026 hPa Calm     71% 0 mm 0.00 W/m2
00:45 4.4 °C -0.2 °C 1026 hPa Calm     72% 0 mm 0.00 W/m2
00:50 4.4 °C -0.6 °C 1026 hPa Calm     70% 0 mm 0.00 W/m2
00:55 4.4 °C -0.6 °C 1026.3 hPa Calm     70% 0 mm 0.00 W/m2
01:00 4.3 °C -0.8 °C 1026.3 hPa Calm     69% 0 mm 0.00 W/m2
01:05 4.3 °C -0.8 °C 1026.3 hPa Calm     69% 0 mm 0.00 W/m2
01:10 4.3 °C -0.9 °C 1026.3 hPa Calm     69% 0 mm 0.00 W/m2
01:15 4.2 °C -1.2 °C 1026.3 hPa Calm     68% 0 mm 0.00 W/m2
01:20 4.2 °C -1.3 °C 1026.3 hPa Calm     67% 0 mm 0.00 W/m2
01:25 4.2 °C -1.6 °C 1026.3 hPa Calm     66% 0 mm 0.00 W/m2
01:30 4.2 °C -1.4 °C 1026.3 hPa Calm     67% 0 mm 0.00 W/m2
01:35 4.2 °C -1.4 °C 1026.3 hPa Calm     67% 0 mm 0.00 W/m2
01:40 4.1 °C -2.1 °C 1026.3 hPa Calm     64% 0 mm 0.00 W/m2
01:45 4.1 °C -1.9 °C 1026.3 hPa Calm     65% 0 mm 0.00 W/m2
01:50 4.1 °C -2.3 °C 1026.3 hPa Calm     63% 0 mm 0.00 W/m2
01:55 4.1 °C -2.1 °C 1026.3 hPa Calm     64% 0 mm 0.00 W/m2
02:00 4.1 °C -2.1 °C 1026.3 hPa Calm     64% 0 mm 0.00 W/m2
02:01 4.1 °C -2.1 °C 1026.3 hPa Calm     64% 0 mm 0.00 W/m2
02:06 4.1 °C -2.3 °C 1026.3 hPa Calm     63% 0 mm 0.00 W/m2
02:11 4.1 °C -2.6 °C 1026.6 hPa Calm     62% 0 mm 0.00 W/m2
02:16 4 °C -2.6 °C 1026.3 hPa Calm     62% 0 mm 0.00 W/m2
02:21 4 °C -2.4 °C 1026.3 hPa Calm     63% 0 mm 0.00 W/m2
02:26 4 °C -2.6 °C 1026.3 hPa Calm     62% 0 mm 0.00 W/m2
02:31 4 °C -2.2 °C 1026.3 hPa Calm     64% 0 mm 0.00 W/m2
02:36 4 °C -2.6 °C 1026.3 hPa Calm     62% 0 mm 0.00 W/m2
02:41 3.9 °C -2.4 °C 1026.3 hPa Calm     63% 0 mm 0.00 W/m2
02:46 3.9 °C -2.7 °C 1026.6 hPa Calm     62% 0 mm 0.00 W/m2
02:51 3.9 °C -2.7 °C 1026.6 hPa Calm     62% 0 mm 0.00 W/m2
02:56 3.9 °C -2.5 °C 1026.3 hPa Calm     63% 0 mm 0.00 W/m2
03:01 3.8 °C -2.8 °C 1026.6 hPa Calm     62% 0 mm 0.00 W/m2
03:06 3.8 °C -2.8 °C 1026.3 hPa Calm     62% 0 mm 0.00 W/m2
03:12 3.8 °C -2.8 °C 1026.3 hPa Calm     62% 0 mm 0.00 W/m2
03:17 3.8 °C -3.2 °C 1026.6 hPa Calm     60% 0 mm 0.00 W/m2
03:22 3.8 °C -3.2 °C 1026.6 hPa Calm     60% 0 mm 0.00 W/m2
03:27 3.9 °C -3.4 °C 1026.6 hPa Calm     59% 0 mm 0.00 W/m2
03:32 3.9 °C -3.2 °C 1026.3 hPa Calm     60% 0 mm 0.00 W/m2
03:37 3.9 °C -2.9 °C 1026.3 hPa Calm     61% 0 mm 0.00 W/m2
03:42 3.9 °C -2.7 °C 1026.3 hPa Calm     62% 0 mm 0.00 W/m2
03:47 3.9 °C -2.2 °C 1026 hPa Calm     64% 0 mm 0.00 W/m2
03:57 4 °C -2.2 °C 1026.3 hPa Calm     64% 0 mm 0.00 W/m2
04:02 4.1 °C -2.8 °C 1026.3 hPa Calm     61% 0 mm 0.00 W/m2
04:07 4.1 °C -2.8 °C 1026.3 hPa Calm     61% 0 mm 0.00 W/m2
04:12 4.1 °C -2.5 °C 1026.3 hPa Calm     62% 0 mm 0.00 W/m2
04:17 4.1 °C -2.7 °C 1026.3 hPa Calm     61% 0 mm 0.00 W/m2
04:22 4.1 °C -2.5 °C 1026.6 hPa Calm     62% 0 mm 0.00 W/m2
04:27 4.1 °C -2.3 °C 1026.6 hPa Calm     63% 0 mm 0.00 W/m2
04:32 4.1 °C -2.8 °C 1026.6 hPa Calm     61% 0 mm 0.00 W/m2
04:37 4.1 °C -2.3 °C 1026.6 hPa Calm     63% 0 mm 0.00 W/m2
04:42 4.1 °C -2.3 °C 1026.6 hPa Calm     63% 0 mm 0.00 W/m2
04:47 4.1 °C -2.6 °C 1026.6 hPa Calm     62% 0 mm 0.00 W/m2
04:57 4 °C -3.3 °C 1026.6 hPa Calm     59% 0 mm 0.00 W/m2
05:02 4 °C -3.1 °C 1026.6 hPa Calm     60% 0 mm 0.00 W/m2
05:07 4 °C -2.6 °C 1026.6 hPa Calm     62% 0 mm 0.00 W/m2
05:12 3.9 °C -3.3 °C 1026.6 hPa Calm     59% 0 mm 0.00 W/m2
05:17 3.9 °C -3.3 °C 1026.6 hPa Calm     59% 0 mm 0.00 W/m2
05:27 3.9 °C -3.6 °C 1026.6 hPa Calm     58% 0 mm 0.00 W/m2
05:32 3.9 °C -3.4 °C 1026.6 hPa Calm     59% 0 mm 0.00 W/m2
05:37 3.9 °C -2.9 °C 1026.6 hPa Calm     61% 0 mm 0.00 W/m2
05:42 3.9 °C -3.4 °C 1027 hPa Calm     59% 0 mm 0.00 W/m2
05:48 3.8 °C -2.8 °C 1026.6 hPa Calm     62% 0 mm 0.00 W/m2
05:53 3.8 °C -3 °C 1026.6 hPa Calm     61% 0 mm 0.00 W/m2
05:58 3.8 °C -3 °C 1027 hPa Calm     61% 0 mm 0.00 W/m2
06:03 3.8 °C -3.4 °C 1027 hPa Calm     59% 0 mm 0.00 W/m2
06:08 3.8 °C -3 °C 1027 hPa Calm     61% 0 mm 0.00 W/m2
06:13 3.8 °C -3 °C 1027 hPa Calm     61% 0 mm 0.00 W/m2
06:18 3.8 °C -3.1 °C 1027 hPa Calm     61% 0 mm 0.00 W/m2
06:23 3.8 °C -3.3 °C 1027 hPa Calm     60% 0 mm 0.00 W/m2
06:28 3.8 °C -3.1 °C 1027 hPa Calm     61% 0 mm 0.00 W/m2
06:33 3.8 °C -3.1 °C 1027 hPa Calm     61% 0 mm 0.00 W/m2
06:34 3.8 °C -3.3 °C 1027 hPa Calm     60% 0 mm 0.00 W/m2
06:39 3.8 °C -3.1 °C 1027.3 hPa Calm     61% 0 mm 0.00 W/m2
06:44 3.8 °C -3.3 °C 1027.3 hPa Calm     60% 0 mm 0.00 W/m2
06:49 3.8 °C -3.3 °C 1027.3 hPa Calm     60% 0 mm 0.00 W/m2
06:54 3.8 °C -3.3 °C 1027.3 hPa Calm     60% 0 mm 0.00 W/m2
06:59 3.7 °C -3.1 °C 1027.3 hPa Calm     61% 0 mm 0.00 W/m2
07:04 3.7 °C -3.1 °C 1027.3 hPa Calm     61% 0 mm 5.00 W/m2
07:09 3.7 °C -3.2 °C 1027.3 hPa Calm     61% 0 mm 7.00 W/m2
07:10 3.7 °C -3.2 °C 1027.3 hPa Calm     61% 0 mm 7.00 W/m2
07:20 3.7 °C -3.4 °C 1027.3 hPa Calm     60% 0 mm 12.00 W/m2
07:25 3.7 °C -2.9 °C 1027.3 hPa Calm     62% 0 mm 14.00 W/m2
07:30 3.7 °C -3.2 °C 1027.7 hPa Calm     61% 0 mm 18.00 W/m2
07:35 3.7 °C -2.7 °C 1027.7 hPa Calm     63% 0 mm 23.00 W/m2
07:40 3.7 °C -3.1 °C 1027.7 hPa Calm     61% 0 mm 33.00 W/m2
07:45 3.8 °C -3.1 °C 1027.7 hPa Calm     61% 0 mm 26.00 W/m2
07:50 3.9 °C -2.7 °C 1027.7 hPa Calm     62% 0 mm 60.00 W/m2
07:55 3.9 °C -3.1 °C 1027.7 hPa Calm     60% 0 mm 76.00 W/m2
08:00 4 °C -3.1 °C 1027.7 hPa Calm     60% 0 mm 90.00 W/m2
08:05 4.1 °C -2.9 °C 1027.7 hPa Calm     60% 0 mm 105.00 W/m2
08:10 4.2 °C -2.9 °C 1028 hPa Calm     60% 0 mm 121.00 W/m2
08:15 4.3 °C -3 °C 1028 hPa Calm     59% 0 mm 135.00 W/m2
08:20 4.4 °C -3.6 °C 1028 hPa Calm     56% 0 mm 153.00 W/m2
08:25 4.6 °C -3.2 °C 1028 hPa Calm     57% 0 mm 169.00 W/m2
08:30 4.7 °C -2.7 °C 1028 hPa Calm     59% 0 mm 188.00 W/m2
08:35 4.7 °C -3.3 °C 1028 hPa Calm     56% 0 mm 207.00 W/m2
08:40 4.8 °C -2.5 °C 1028.3 hPa Calm     59% 0 mm 225.00 W/m2
08:45 4.9 °C -2.7 °C 1028.3 hPa Calm     58% 0 mm 243.00 W/m2
08:51 5 °C -2.6 °C 1028.3 hPa Calm     58% 0 mm 258.00 W/m2
08:56 5.1 °C -2.7 °C 1028.3 hPa Calm     57% 0 mm 276.00 W/m2
09:01 5.2 °C -2.8 °C 1028.3 hPa Calm     56% 0 mm 294.00 W/m2
09:06 5.3 °C -2.3 °C 1028.3 hPa Calm     58% 0 mm 304.00 W/m2
09:11 5.4 °C -2.6 °C 1028.3 hPa SE 1.6 km/h 3.2 km/h 56% 0 mm 318.00 W/m2
09:16 5.7 °C -1.3 °C 1028.3 hPa Calm     61% 0 mm 334.00 W/m2
09:21 5.8 °C -1.1 °C 1028.3 hPa Calm     61% 0 mm 345.00 W/m2
09:26 6 °C -1.2 °C 1028.7 hPa Calm     60% 0 mm 355.00 W/m2
09:31 6.2 °C -0.8 °C 1028.7 hPa Calm     61% 0 mm 366.00 W/m2
09:36 6.3 °C 0 °C 1028.7 hPa Calm     64% 0 mm 378.00 W/m2
09:41 6.5 °C -0.7 °C 1028.7 hPa Calm     60% 0 mm 388.00 W/m2
09:51 6.8 °C -1.1 °C 1028.7 hPa Calm     57% 0 mm 406.00 W/m2
09:56 7.1 °C -0.6 °C 1029 hPa Calm     58% 0 mm 415.00 W/m2
10:01 7.3 °C -1.4 °C 1029 hPa Calm     54% 0 mm 424.00 W/m2
10:06 7.4 °C -1 °C 1029 hPa Calm     55% 0 mm 432.00 W/m2
10:11 7.7 °C -1.3 °C 1029 hPa Calm     53% 0 mm 439.00 W/m2
10:16 7.9 °C -1.3 °C 1029 hPa Calm   1.6 km/h 52% 0 mm 448.00 W/m2
10:21 8.1 °C -3.2 °C 1029 hPa Calm     45% 0 mm 455.00 W/m2
10:26 8.3 °C -1.7 °C 1029 hPa Calm     49% 0 mm 461.00 W/m2
10:31 8.5 °C -2.4 °C 1029 hPa Calm     46% 0 mm 468.00 W/m2
10:36 8.7 °C -3.2 °C 1029 hPa Calm     43% 0 mm 475.00 W/m2
10:41 8.9 °C -1.4 °C 1029 hPa Calm     48% 0 mm 480.00 W/m2
10:46 9.1 °C -2.2 °C 1029 hPa Calm     45% 0 mm 485.00 W/m2
10:51 9.2 °C -2.4 °C 1029 hPa Calm     44% 0 mm 490.00 W/m2
10:56 9.3 °C -1.7 °C 1028.7 hPa Calm     46% 0 mm 494.00 W/m2
11:01 9.5 °C -2.8 °C 1028.7 hPa Calm     42% 0 mm 496.00 W/m2
11:06 9.7 °C -2.6 °C 1028.7 hPa Calm     42% 0 mm 501.00 W/m2
11:11 9.9 °C -1.4 °C 1028.7 hPa Calm     45% 0 mm 503.00 W/m2
11:16 10 °C -1.4 °C 1028.7 hPa Calm     45% 0 mm 506.00 W/m2
11:21 10.1 °C -1.6 °C 1028.3 hPa Calm     44% 0 mm 510.00 W/m2
11:26 10.2 °C -0.6 °C 1028.3 hPa Calm     47% 0 mm 512.00 W/m2
11:31 10.3 °C -1.4 °C 1028.3 hPa Calm     44% 0 mm 513.00 W/m2
11:36 10.3 °C -1.1 °C 1028.3 hPa Calm     45% 0 mm 515.00 W/m2
11:41 10.5 °C -1.2 °C 1028.3 hPa Calm     44% 0 mm 515.00 W/m2
11:46 10.7 °C -0.8 °C 1028.3 hPa Calm     45% 0 mm 517.00 W/m2
11:51 11 °C -0.2 °C 1028 hPa Calm     46% 0 mm 515.00 W/m2
11:56 11.1 °C -0.4 °C 1028 hPa Calm     45% 0 mm 517.00 W/m2
11:58 11.1 °C -0.4 °C 1028 hPa Calm     45% 0 mm 515.00 W/m2
12:03 11.2 °C 0.1 °C 1028 hPa Calm     46% 0 mm 515.00 W/m2
12:08 11.3 °C 0.4 °C 1028 hPa Calm     47% 0 mm 513.00 W/m2
12:13 11.4 °C 0.2 °C 1027.7 hPa Calm     46% 0 mm 512.00 W/m2
12:18 11.4 °C -0.1 °C 1027.7 hPa Calm   3.2 km/h 45% 0 mm 512.00 W/m2
12:23 11.6 °C 0.7 °C 1027.7 hPa Calm     47% 0 mm 508.00 W/m2
12:28 11.7 °C 0.1 °C 1027.7 hPa Calm     45% 0 mm 504.00 W/m2
12:33 11.8 °C 0.2 °C 1027.3 hPa Calm     45% 0 mm 503.00 W/m2
12:38 11.9 °C 0.7 °C 1027.3 hPa Calm   6.4 km/h 46% 0 mm 499.00 W/m2
12:43 11.9 °C 0.7 °C 1027.3 hPa Calm     46% 0 mm 494.00 W/m2
12:48 11.9 °C 0.4 °C 1027.3 hPa Calm   1.6 km/h 45% 0 mm 489.00 W/m2
12:53 12 °C -0.2 °C 1027.3 hPa Calm     43% 0 mm 487.00 W/m2
12:58 12 °C 0.1 °C 1027.3 hPa Calm   1.6 km/h 44% 0 mm 482.00 W/m2
13:03 12.1 °C 0.2 °C 1027 hPa Calm   3.2 km/h 44% 0 mm 478.00 W/m2
13:08 12.1 °C 1.1 °C 1027 hPa Calm     47% 0 mm 469.00 W/m2
13:13 12.1 °C 0.2 °C 1027 hPa Calm     44% 0 mm 462.00 W/m2
13:18 12.1 °C 0.8 °C 1027 hPa Calm   1.6 km/h 46% 0 mm 459.00 W/m2
13:23 12 °C -0.2 °C 1027 hPa Calm   1.6 km/h 43% 0 mm 450.00 W/m2
13:28 12 °C -0.8 °C 1027 hPa Calm   3.2 km/h 41% 0 mm 443.00 W/m2
13:33 12.1 °C -0.4 °C 1027 hPa Calm   3.2 km/h 42% 0 mm 434.00 W/m2
13:38 12.1 °C -0.1 °C 1027.3 hPa NW 1.6 km/h 6.4 km/h 43% 0 mm 427.00 W/m2
13:43 12.2 °C -0.1 °C 1027.3 hPa Calm   9.7 km/h 43% 0 mm 420.00 W/m2
13:48 12.2 °C 0 °C 1027.3 hPa Calm   4.8 km/h 43% 0 mm 410.00 W/m2
13:53 12.2 °C 0.9 °C 1027 hPa NNW 4.8 km/h 8 km/h 46% 0 mm 401.00 W/m2
13:58 12.3 °C 1.6 °C 1027 hPa Calm   8 km/h 48% 0 mm 392.00 W/m2
14:03 12.3 °C 1.3 °C 1027 hPa NW 1.6 km/h 3.2 km/h 47% 0 mm 385.00 W/m2
14:08 12.3 °C 1 °C 1027.3 hPa Calm     46% 0 mm 381.00 W/m2
14:13 12.3 °C 0.7 °C 1027 hPa Calm     45% 0 mm 380.00 W/m2
14:18 12.3 °C 1.3 °C 1027.3 hPa Calm     47% 0 mm 374.00 W/m2
14:23 12.3 °C 1.3 °C 1027.3 hPa Calm     47% 0 mm 357.00 W/m2
14:28 12.3 °C 1.9 °C 1027.3 hPa Calm   3.2 km/h 49% 0 mm 274.00 W/m2
14:33 12.3 °C 2.7 °C 1027.3 hPa Calm   6.4 km/h 52% 0 mm 306.00 W/m2
14:38 12.2 °C 2.4 °C 1027.3 hPa Calm     51% 0 mm 311.00 W/m2
14:43 12.2 °C 2.9 °C 1027.3 hPa Calm     53% 0 mm 299.00 W/m2
14:49 12.2 °C 2.6 °C 1027.7 hPa Calm     52% 0 mm 283.00 W/m2
14:54 12.2 °C 2.9 °C 1027.7 hPa Calm     53% 0 mm 283.00 W/m2
14:59 12.1 °C 2.6 °C 1027.7 hPa Calm     52% 0 mm 272.00 W/m2
15:04 12.1 °C 2.8 °C 1027.3 hPa Calm     53% 0 mm 230.00 W/m2
15:09 12.1 °C 3.1 °C 1027.3 hPa Calm     54% 0 mm 181.00 W/m2
15:14 12.1 °C 3.6 °C 1027.3 hPa Calm   6.4 km/h 56% 0 mm 195.00 W/m2
15:19 12.2 °C 4.2 °C 1027.3 hPa ENE 9.7 km/h 24.1 km/h 58% 0 mm 197.00 W/m2
15:24 12.1 °C 4.6 °C 1027.3 hPa East 8 km/h 16.1 km/h 60% 0 mm 93.00 W/m2
15:29 12.1 °C 3.8 °C 1027.3 hPa East 6.4 km/h 20.9 km/h 57% 0 mm 49.00 W/m2
15:34 12.1 °C 4.1 °C 1027.3 hPa ENE 1.6 km/h 16.1 km/h 58% 0 mm 95.00 W/m2
15:39 12 °C 3 °C 1027.3 hPa Calm   16.1 km/h 54% 0 mm 132.00 W/m2
15:44 12 °C 3.2 °C 1027.3 hPa ENE 11.3 km/h 17.7 km/h 55% 0 mm 111.00 W/m2
15:49 11.9 °C 3.9 °C 1027.3 hPa Calm   16.1 km/h 58% 0 mm 83.00 W/m2
15:54 11.7 °C 4 °C 1027.3 hPa ENE 6.4 km/h 20.9 km/h 59% 0 mm 74.00 W/m2
15:59 11.6 °C 3.8 °C 1027.3 hPa ENE 16.1 km/h 25.7 km/h 59% 0 mm 62.00 W/m2
16:04 11.4 °C 2.9 °C 1027.3 hPa Calm   27.4 km/h 56% 0 mm 49.00 W/m2
16:09 11.3 °C 1.8 °C 1027.3 hPa ENE 6.4 km/h 16.1 km/h 52% 0 mm 35.00 W/m2
16:14 11.3 °C 1.8 °C 1027.3 hPa East 17.7 km/h 22.5 km/h 52% 0 mm 26.00 W/m2
16:19 11.3 °C 2.1 °C 1027.3 hPa East 3.2 km/h 24.1 km/h 53% 0 mm 18.00 W/m2
16:24 11.3 °C 1.3 °C 1027.3 hPa ENE 3.2 km/h 19.3 km/h 50% 0 mm 14.00 W/m2
16:29 11.4 °C 0.5 °C 1027.7 hPa Calm   16.1 km/h 47% 0 mm 12.00 W/m2
16:30 11.4 °C 0.5 °C 1027.7 hPa East 12.9 km/h 22.5 km/h 47% 0 mm 11.00 W/m2
16:35 11.4 °C 1.1 °C 1027.7 hPa East 4.8 km/h 19.3 km/h 49% 0 mm 9.00 W/m2
16:40 11.5 °C 0.9 °C 1027.7 hPa NE 12.9 km/h 33.8 km/h 48% 0 mm 7.00 W/m2
16:41 11.5 °C 0.3 °C 1027.7 hPa ENE 9.7 km/h 20.9 km/h 46% 0 mm 7.00 W/m2
16:46 11.6 °C -0.3 °C 1027.7 hPa ENE 1.6 km/h 19.3 km/h 44% 0 mm 5.00 W/m2
16:51 11.8 °C -0.1 °C 1027.7 hPa East 16.1 km/h 24.1 km/h 44% 0 mm 0.00 W/m2
16:56 11.9 °C -0.3 °C 1027.7 hPa East 3.2 km/h 20.9 km/h 43% 0 mm 0.00 W/m2
17:02 11.8 °C -0.3 °C 1027.7 hPa ENE 1.6 km/h 4.8 km/h 43% 0 mm 0.00 W/m2
17:07 11.8 °C -0.3 °C 1027.7 hPa East 6.4 km/h 17.7 km/h 43% 0 mm 0.00 W/m2
17:12 11.8 °C -1.4 °C 1028 hPa East 22.5 km/h 24.1 km/h 40% 0 mm 0.00 W/m2
17:17 11.8 °C -1.4 °C 1027.7 hPa Calm   8 km/h 40% 0 mm 0.00 W/m2
17:22 11.8 °C -1.4 °C 1028 hPa ESE 9.7 km/h 11.3 km/h 40% 0 mm 0.00 W/m2
17:27 11.8 °C -1.4 °C 1028 hPa Calm   19.3 km/h 40% 0 mm 0.00 W/m2
17:32 11.7 °C -2.5 °C 1028 hPa ESE 9.7 km/h 24.1 km/h 37% 0 mm 0.00 W/m2
17:37 11.7 °C -1.4 °C 1028 hPa East 11.3 km/h 19.3 km/h 40% 0 mm 0.00 W/m2
17:42 11.8 °C -3.2 °C 1028 hPa Calm   30.6 km/h 35% 0 mm 0.00 W/m2
17:47 11.9 °C -3.9 °C 1028 hPa ENE 1.6 km/h 20.9 km/h 33% 0 mm 0.00 W/m2
17:52 12.1 °C -3.3 °C 1028 hPa ENE 4.8 km/h 27.4 km/h 34% 0 mm 0.00 W/m2
17:57 12.4 °C -3.1 °C 1027.7 hPa East 8 km/h 40.2 km/h 34% 0 mm 0.00 W/m2
18:02 12.6 °C -3.7 °C 1027.7 hPa ESE 14.5 km/h 45.1 km/h 32% 0 mm 0.00 W/m2
18:07 12.6 °C -4.1 °C 1027.7 hPa Calm   32.2 km/h 31% 0 mm 0.00 W/m2
18:12 12.7 °C -4.4 °C 1028 hPa ENE 17.7 km/h 37 km/h 30% 0 mm 0.00 W/m2
18:17 12.8 °C -4.3 °C 1028 hPa SE 11.3 km/h 38.6 km/h 30% 0 mm 0.00 W/m2
18:22 12.9 °C -3.8 °C 1028 hPa ESE 14.5 km/h 35.4 km/h 31% 0 mm 0.00 W/m2
18:27 13 °C -4.2 °C 1028 hPa East 17.7 km/h 24.1 km/h 30% 0 mm 0.00 W/m2
18:31 13 °C -4.6 °C 1028 hPa ESE 20.9 km/h 27.4 km/h 29% 0 mm 0.00 W/m2
18:36 12.9 °C -3.8 °C 1028.3 hPa SE 8 km/h 17.7 km/h 31% 0 mm 0.00 W/m2
18:41 12.7 °C -4.4 °C 1028.3 hPa Calm   35.4 km/h 30% 0 mm 0.00 W/m2
18:46 12.5 °C -3.7 °C 1028.3 hPa Calm   22.5 km/h 32% 0 mm 0.00 W/m2
18:51 12.3 °C -4.7 °C 1028.3 hPa SE 14.5 km/h 25.7 km/h 30% 0 mm 0.00 W/m2
18:57 12.3 °C -5.2 °C 1028.7 hPa Calm   12.9 km/h 29% 0 mm 0.00 W/m2
19:02 12.2 °C -4.4 °C 1028.7 hPa Calm   1.6 km/h 31% 0 mm 0.00 W/m2
19:07 12.1 °C -4.1 °C 1028.7 hPa Calm     32% 0 mm 0.00 W/m2
19:13 11.8 °C -3.9 °C 1028.7 hPa Calm   3.2 km/h 33% 0 mm 0.00 W/m2
19:18 11.7 °C -4.4 °C 1028.7 hPa Calm     32% 0 mm 5.00 W/m2
19:23 11.4 °C -4.3 °C 1028.7 hPa Calm     33% 0 mm 0.00 W/m2
19:24 11.4 °C -3.5 °C 1028.7 hPa Calm   1.6 km/h 35% 0 mm 0.00 W/m2
19:29 11.2 °C -4.1 °C 1028.7 hPa Calm   1.6 km/h 34% 0 mm 0.00 W/m2
19:35 11.1 °C -3.8 °C 1028.7 hPa Calm   1.6 km/h 35% 0 mm 0.00 W/m2
19:39 10.8 °C -3.6 °C 1028.7 hPa Calm     36% 0 mm 0.00 W/m2
19:44 10.7 °C -3.7 °C 1028.7 hPa Calm     36% 0 mm 0.00 W/m2
19:49 10.4 °C -4.4 °C 1028.7 hPa Calm   3.2 km/h 35% 0 mm 5.00 W/m2
19:54 10.2 °C -3.1 °C 1029 hPa Calm   1.6 km/h 39% 0 mm 0.00 W/m2
19:59 10.1 °C -4.3 °C 1029 hPa Calm     36% 0 mm 0.00 W/m2
20:05 9.9 °C -4.8 °C 1029 hPa Calm     35% 0 mm 0.00 W/m2
20:10 9.8 °C -4.9 °C 1029 hPa Calm     35% 0 mm 0.00 W/m2
20:15 9.8 °C -5.3 °C 1029.3 hPa Calm     34% 0 mm 0.00 W/m2
20:20 9.7 °C -5.4 °C 1029.3 hPa Calm     34% 0 mm 0.00 W/m2
20:25 9.7 °C -5.4 °C 1029.3 hPa Calm     34% 0 mm 0.00 W/m2
20:30 9.7 °C -4.7 °C 1029.3 hPa Calm     36% 0 mm 0.00 W/m2
20:35 9.6 °C -5.5 °C 1029.3 hPa Calm     34% 0 mm 0.00 W/m2
20:40 9.6 °C -5.1 °C 1029.3 hPa East 1.6 km/h 3.2 km/h 35% 0 mm 0.00 W/m2
20:45 9.7 °C -5.1 °C 1029.3 hPa Calm   6.4 km/h 35% 0 mm 0.00 W/m2
20:50 9.7 °C -5.1 °C 1029.3 hPa East 3.2 km/h 6.4 km/h 35% 0 mm 0.00 W/m2
20:55 9.7 °C -5.8 °C 1029.7 hPa Calm   8 km/h 33% 0 mm 0.00 W/m2
21:00 9.7 °C -5 °C 1029.7 hPa Calm     35% 0 mm 0.00 W/m2
21:05 9.8 °C -5.7 °C 1029.7 hPa Calm   3.2 km/h 33% 0 mm 0.00 W/m2
21:10 9.9 °C -5.2 °C 1029.7 hPa Calm   3.2 km/h 34% 0 mm 0.00 W/m2
21:15 9.9 °C -6.4 °C 1029.7 hPa Calm     31% 0 mm 0.00 W/m2
21:20 10 °C -5.6 °C 1029.7 hPa Calm   3.2 km/h 33% 0 mm 0.00 W/m2
21:25 9.9 °C -4.4 °C 1029.7 hPa Calm     36% 0 mm 0.00 W/m2
21:30 9.9 °C -5.2 °C 1029.7 hPa Calm   8 km/h 34% 0 mm 0.00 W/m2
21:35 9.8 °C -4.5 °C 1029.7 hPa East 1.6 km/h 3.2 km/h 36% 0 mm 0.00 W/m2
21:40 9.8 °C -4.6 °C 1029.7 hPa East 6.4 km/h 9.7 km/h 36% 0 mm 0.00 W/m2
21:45 9.7 °C -4.6 °C 1030 hPa Calm   9.7 km/h 36% 0 mm 0.00 W/m2
21:50 9.7 °C -4.3 °C 1030 hPa East 1.6 km/h 11.3 km/h 37% 0 mm 0.00 W/m2
21:55 9.6 °C -4.4 °C 1030 hPa ESE 6.4 km/h 14.5 km/h 37% 0 mm 0.00 W/m2
22:00 9.6 °C -4.7 °C 1029.7 hPa East 1.6 km/h 8 km/h 36% 0 mm 0.00 W/m2
22:05 9.7 °C -5.1 °C 1029.7 hPa Calm   24.1 km/h 35% 0 mm 0.00 W/m2
22:10 9.7 °C -4.6 °C 1030 hPa ESE 12.9 km/h 22.5 km/h 36% 0 mm 0.00 W/m2
22:15 9.8 °C -4.5 °C 1030 hPa East 17.7 km/h 17.7 km/h 36% 0 mm 0.00 W/m2
22:20 9.9 °C -4.4 °C 1030 hPa East 1.6 km/h 20.9 km/h 36% 0 mm 0.00 W/m2
22:25 10.1 °C -4.3 °C 1030 hPa ESE 1.6 km/h 22.5 km/h 36% 0 mm 0.00 W/m2
22:30 10.2 °C -4.2 °C 1030 hPa ESE 6.4 km/h 24.1 km/h 36% 0 mm 0.00 W/m2
22:35 10.2 °C -4.9 °C 1030 hPa Calm   17.7 km/h 34% 0 mm 0.00 W/m2
22:40 10.3 °C -4.5 °C 1030 hPa East 1.6 km/h 20.9 km/h 35% 0 mm 0.00 W/m2
22:45 10.4 °C -4.7 °C 1030 hPa ESE 17.7 km/h 24.1 km/h 34% 0 mm 0.00 W/m2
22:50 10.5 °C -4.3 °C 1030 hPa East 20.9 km/h 30.6 km/h 35% 0 mm 0.00 W/m2
22:55 10.6 °C -5.4 °C 1030 hPa East 14.5 km/h 24.1 km/h 32% 0 mm 0.00 W/m2
23:00 10.7 °C -4.9 °C 1030 hPa East 3.2 km/h 20.9 km/h 33% 0 mm 0.00 W/m2
23:05 10.8 °C -4.8 °C 1030 hPa ESE 11.3 km/h 11.3 km/h 33% 0 mm 0.00 W/m2
23:10 10.8 °C -4.4 °C 1030 hPa ESE 1.6 km/h 17.7 km/h 34% 0 mm 0.00 W/m2
23:15 10.8 °C -4.8 °C 1030 hPa East 8 km/h 30.6 km/h 33% 0 mm 0.00 W/m2
23:20 10.8 °C -5.3 °C 1030 hPa ESE 12.9 km/h 19.3 km/h 32% 0 mm 0.00 W/m2
23:25 10.8 °C -4.8 °C 1030 hPa East 14.5 km/h 29 km/h 33% 0 mm 0.00 W/m2
23:30 10.8 °C -5.7 °C 1030 hPa ESE 8 km/h 24.1 km/h 31% 0 mm 0.00 W/m2
23:35 10.8 °C -4.8 °C 1030 hPa Calm   22.5 km/h 33% 0 mm 0.00 W/m2
23:40 10.8 °C -5.3 °C 1029.7 hPa East 3.2 km/h 3.2 km/h 32% 0 mm 0.00 W/m2
23:45 10.8 °C -5.2 °C 1029.7 hPa ESE 1.6 km/h 6.4 km/h 32% 0 mm 0.00 W/m2
23:50 10.9 °C -4.7 °C 1029.7 hPa ESE 8 km/h 14.5 km/h 33% 0 mm 0.00 W/m2
23:55 10.9 °C -5.5 °C 1029.7 hPa ESE 6.4 km/h 17.7 km/h 31% 0 mm 0.00 W/m2
Foresthill Weather
 WU-history PHP script courtesy of   Juneau County Weather.
powered by Cumulus v1.9.3 (1059)
Ambient Weather VWS v14.00
Top Contact Website Map Copyright © 2007 - 2018 Foresthillweather.com Never base important decisions on this or any weather information obtained from the Internet